Time;durP1;ratioP1;P1;durP2;ratioP2;P2;SDS_P1;SDS_P2;PMS_P1;PMS_P2;Temp;Humidity;BMP_temperature;BMP_pressure;BME280_temperature;BME280_humidity;BME280_pressure;Samples;Min_cycle;Max_cycle;Signal;HPM_P1;HPM_P2
2021/10/05 00:01:07;;;;;;;7.50;4.85;;;;;;;;;;5087943;28;20088;-88
2021/10/05 00:03:33;;;;;;;9.40;4.28;;;;;;;;;;5075939;28;20031;-88
2021/10/05 00:05:59;;;;;;;7.47;4.82;;;;;;;;;;5078947;28;20033;-88
2021/10/05 00:08:25;;;;;;;6.80;4.40;;;;;;;;;;5077010;28;20051;-90
2021/10/05 00:10:53;;;;;;;6.43;3.50;;;;;;;;;;5077757;28;20059;-87
2021/10/05 00:13:19;;;;;;;6.47;4.07;;;;;;;;;;5078347;28;20012;-87
2021/10/05 00:15:45;;;;;;;7.70;3.53;;;;;;;;;;5077742;28;20528;-89
2021/10/05 00:18:11;;;;;;;5.88;3.80;;;;;;;;;;5072661;28;20119;-88
2021/10/05 00:20:50;;;;;;;5.85;4.07;;;;;;;;;;5082244;28;20043;-88
2021/10/05 00:23:16;;;;;;;7.43;4.10;;;;;;;;;;5076470;28;20051;-89
2021/10/05 00:25:46;;;;;;;8.00;4.18;;;;;;;;;;5074303;28;20024;-89
2021/10/05 00:28:12;;;;;;;5.93;3.67;;;;;;;;;;5074335;28;20029;-88
2021/10/05 00:30:39;;;;;;;7.35;4.70;;;;;;;;;;5078606;28;20025;-87
2021/10/05 00:33:11;;;;;;;7.85;4.22;;;;;;;;;;5076146;28;20540;-88
2021/10/05 00:35:37;;;;;;;7.13;3.80;;;;;;;;;;5074143;28;20032;-85
2021/10/05 00:38:03;;;;;;;6.20;3.85;;;;;;;;;;5080411;28;20029;-85
2021/10/05 00:40:31;;;;;;;6.75;3.90;;;;;;;;;;5086678;28;20093;-88
2021/10/05 00:43:00;;;;;;;5.97;3.75;;;;;;;;;;5058571;28;20486;-88
2021/10/05 00:45:26;;;;;;;5.97;3.80;;;;;;;;;;5072376;28;20092;-87
2021/10/05 00:47:56;;;;;;;7.03;4.40;;;;;;;;;;5082075;28;20025;-86
2021/10/05 00:50:23;;;;;;;6.93;4.32;;;;;;;;;;5083619;28;20025;-88
2021/10/05 00:52:51;;;;;;;7.25;4.13;;;;;;;;;;5064302;28;20096;-87
2021/10/05 00:55:17;;;;;;;13.60;5.60;;;;;;;;;;5090722;28;20056;-88
2021/10/05 00:57:46;;;;;;;5.90;3.75;;;;;;;;;;5083408;28;20024;-84
2021/10/05 01:00:12;;;;;;;6.97;3.85;;;;;;;;;;5072639;28;20109;-87
2021/10/05 01:02:42;;;;;;;6.45;4.10;;;;;;;;;;5082843;28;20032;-86
2021/10/05 01:05:08;;;;;;;4.93;3.42;;;;;;;;;;5080537;28;20772;-87
2021/10/05 01:07:38;;;;;;;5.40;3.40;;;;;;;;;;5077562;28;20108;-86
2021/10/05 01:10:08;;;;;;;8.68;3.80;;;;;;;;;;5084199;28;20119;-87
2021/10/05 01:12:35;;;;;;;9.13;3.85;;;;;;;;;;5061058;28;20458;-86
2021/10/05 01:15:03;;;;;;;6.38;3.78;;;;;;;;;;5078237;28;20028;-84
2021/10/05 01:17:29;;;;;;;6.60;3.67;;;;;;;;;;5081198;28;20061;-87
2021/10/05 01:19:55;;;;;;;7.78;3.90;;;;;;;;;;5076497;28;20045;-88
2021/10/05 01:22:22;;;;;;;7.20;3.95;;;;;;;;;;5073105;28;20481;-87
2021/10/05 01:24:51;;;;;;;6.55;3.92;;;;;;;;;;5075214;28;20040;-86
2021/10/05 01:27:21;;;;;;;6.03;3.47;;;;;;;;;;5082889;28;20052;-85
2021/10/05 01:29:48;;;;;;;6.45;3.83;;;;;;;;;;5081716;28;20028;-88
2021/10/05 01:32:15;;;;;;;8.10;4.82;;;;;;;;;;5081482;28;20025;-84
2021/10/05 01:34:42;;;;;;;7.60;4.05;;;;;;;;;;5076824;28;20492;-88
2021/10/05 01:37:16;;;;;;;8.23;4.32;;;;;;;;;;5078000;28;20048;-88
2021/10/05 01:39:44;;;;;;;6.90;3.92;;;;;;;;;;5079197;28;20378;-89
2021/10/05 01:42:13;;;;;;;6.35;3.70;;;;;;;;;;5085390;28;20106;-89
2021/10/05 01:44:41;;;;;;;7.32;4.72;;;;;;;;;;5080599;28;20064;-90
2021/10/05 01:47:11;;;;;;;6.22;4.25;;;;;;;;;;5070083;28;20140;-88
2021/10/05 01:49:38;;;;;;;6.72;4.20;;;;;;;;;;5079930;28;20060;-87
2021/10/05 01:52:07;;;;;;;7.32;4.30;;;;;;;;;;5082366;28;20048;-89
2021/10/05 01:54:37;;;;;;;6.95;4.22;;;;;;;;;;5080844;28;20029;-89
2021/10/05 01:57:03;;;;;;;5.50;3.88;;;;;;;;;;5077849;28;20166;-88
2021/10/05 01:59:33;;;;;;;6.72;4.22;;;;;;;;;;5078576;28;20099;-86
2021/10/05 02:02:01;;;;;;;8.07;4.47;;;;;;;;;;5066796;28;20082;-89
2021/10/05 02:04:28;;;;;;;6.90;4.13;;;;;;;;;;5070368;28;20021;-88
2021/10/05 02:06:55;;;;;;;5.78;4.07;;;;;;;;;;5078917;28;20024;-90
2021/10/05 02:09:24;;;;;;;7.20;4.10;;;;;;;;;;5078593;28;20036;-90
2021/10/05 02:11:51;;;;;;;8.82;4.43;;;;;;;;;;5072870;28;20020;-89
2021/10/05 02:14:17;;;;;;;6.25;3.97;;;;;;;;;;5079728;28;20025;-90
2021/10/05 02:16:44;;;;;;;5.85;3.97;;;;;;;;;;5079845;28;20017;-89
2021/10/05 02:19:12;;;;;;;7.15;3.88;;;;;;;;;;5079009;28;20029;-89
2021/10/05 02:21:38;;;;;;;10.57;4.45;;;;;;;;;;5060511;28;20033;-89
2021/10/05 02:26:49;;;;;;;7.97;4.80;;;;;;;;;;5078235;28;20036;-88
2021/10/05 02:29:18;;;;;;;10.05;4.97;;;;;;;;;;5085942;28;20017;-87
2021/10/05 02:31:51;;;;;;;7.03;4.15;;;;;;;;;;5087887;28;20035;-89
2021/10/05 02:34:18;;;;;;;6.70;3.58;;;;;;;;;;5064124;28;20032;-88
2021/10/05 02:36:47;;;;;;;5.45;3.85;;;;;;;;;;5084550;28;20134;-87
2021/10/05 02:39:17;;;;;;;7.38;3.83;;;;;;;;;;5085298;28;20485;-88
2021/10/05 02:41:48;;;;;;;;;;;12.10;99.90;;;;;;5078879;28;20097;-88
2021/10/05 02:44:19;;;;;;;5.45;3.50;;;;;;;;;;5083266;28;19905;-88
2021/10/05 02:46:47;;;;;;;6.45;3.92;;;;;;;;;;5077835;28;20100;-89
2021/10/05 02:49:14;;;;;;;4.95;3.35;;;;;;;;;;5087259;28;20032;-88
2021/10/05 02:51:41;;;;;;;5.88;3.33;;;;;;;;;;5085396;28;20016;-87
2021/10/05 02:54:07;;;;;;;6.03;3.88;;;;;;;;;;5077698;28;20051;-86
2021/10/05 02:56:34;;;;;;;5.90;3.60;;;;;;;;;;5078058;28;20021;-88
2021/10/05 02:59:00;;;;;;;6.50;3.92;;;;;;;;;;5091762;28;20036;-87
2021/10/05 03:01:37;;;;;;;5.28;4.05;;;;;;;;;;5085027;28;20437;-86
2021/10/05 03:04:04;;;;;;;6.97;4.15;;;;;;;;;;5059536;28;20543;-85
2021/10/05 03:06:30;;;;;;;7.82;3.92;;;;;;;;;;5084256;28;20032;-87
2021/10/05 03:08:56;;;;;;;6.25;4.20;;;;;;;;;;5082540;28;20075;-88
2021/10/05 03:11:23;;;;;;;6.43;4.18;;;;;;;;;;5063041;28;20028;-88
2021/10/05 03:13:49;;;;;;;6.05;3.67;;;;;;;;;;5084305;28;20035;-85
2021/10/05 03:16:15;;;;;;;7.15;4.07;;;;;;;;;;5077107;28;20100;-89
2021/10/05 03:18:46;;;;;;;7.07;4.20;;;;;;;;;;5078156;28;20025;-86
2021/10/05 03:21:12;;;;;;;7.07;4.50;;;;;;;;;;5081947;28;20020;-87
2021/10/05 03:23:43;;;;;;;8.40;5.45;;;;;;;;;;5090556;28;20029;-86
2021/10/05 03:26:09;;;;;;;6.95;5.00;;;;;;;;;;5076532;28;20039;-87
2021/10/05 03:28:38;;;;;;;9.55;5.60;;;;;;;;;;5079710;28;20040;-87
2021/10/05 03:31:07;;;;;;;9.50;5.95;;;;;;;;;;5084782;28;20016;-88
2021/10/05 03:33:36;;;;;;;9.75;6.65;;;;;;;;;;5075749;28;20031;-87
2021/10/05 03:36:03;;;;;;;11.00;7.00;;;;;;;;;;5062442;28;20040;-85
2021/10/05 03:38:29;;;;;;;10.98;6.35;;;;;;;;;;5088691;28;20063;-88
2021/10/05 03:40:56;;;;;;;9.48;6.47;;;;;;;;;;5079136;28;20040;-87
2021/10/05 03:43:22;;;;;;;10.30;6.20;;;;;;;;;;5073523;28;20037;-85
2021/10/05 03:45:49;;;;;;;14.55;6.60;;;;;;;;;;5091509;28;20036;-86
2021/10/05 03:48:16;;;;;;;9.02;6.35;;;;;;;;;;5083419;28;20041;-88
2021/10/05 03:50:45;;;;;;;10.43;6.18;;;;;;;;;;5071882;28;20065;-89
2021/10/05 03:53:18;;;;;;;9.82;5.97;;;;;;;;;;5073818;28;20040;-87
2021/10/05 03:55:52;;;;;;;9.75;5.85;;;;;;;;;;5077299;28;20021;-89
2021/10/05 03:58:20;;;;;;;9.07;5.72;;;;;;;;;;5080147;28;20024;-89
2021/10/05 04:00:47;;;;;;;10.43;5.47;;;;;;;;;;5074823;28;20394;-89
2021/10/05 04:03:14;;;;;;;9.23;5.60;;;;;;;;;;5076450;28;20059;-85
2021/10/05 04:05:47;;;;;;;9.57;5.30;;;;;;;;;;5074100;28;20029;-88
2021/10/05 04:08:14;;;;;;;8.68;5.70;;;;;;;;;;5079539;28;20027;-88
2021/10/05 04:10:40;;;;;;;9.18;5.47;;;;;;;;;;5068920;28;20025;-89
2021/10/05 04:13:06;;;;;;;8.00;4.53;;;;;;;;;;5078021;28;20466;-88
2021/10/05 04:15:32;;;;;;;7.30;4.18;;;;;;;;;;5074006;28;20512;-88
2021/10/05 04:17:58;;;;;;;8.68;4.18;;;;;;;;;;5078327;28;20038;-87
2021/10/05 04:20:24;;;;;;;6.95;4.20;;;;;;;;;;5072352;28;20028;-86
2021/10/05 04:22:53;;;;;;;8.57;4.68;;;;;;;;;;5075652;28;20059;-88
2021/10/05 04:25:19;;;;;;;8.20;4.70;;;;;;;;;;5075641;28;20036;-87
2021/10/05 04:27:45;;;;;;;6.97;4.75;;;;;;;;;;5071824;28;20116;-89
2021/10/05 04:30:12;;;;;;;7.32;4.63;;;;;;;;;;5076808;28;20021;-88
2021/10/05 04:32:39;;;;;;;9.15;5.40;;;;;;;;;;5068267;28;20028;-89
2021/10/05 04:35:06;;;;;;;7.72;4.85;;;;;;;;;;5079798;28;20120;-86
2021/10/05 04:37:32;;;;;;;10.13;4.90;;;;;;;;;;5072554;28;20024;-87
2021/10/05 04:39:58;;;;;;;11.38;5.25;;;;;;;;;;5073247;28;20485;-87
2021/10/05 04:42:24;;;;;;;9.38;6.00;;;;;;;;;;5077545;28;20028;-89
2021/10/05 04:44:51;;;;;;;14.13;5.50;;;;;;;;;;5066151;28;20044;-88
2021/10/05 04:47:17;;;;;;;10.55;6.00;;;;;;;;;;5064511;28;20494;-88
2021/10/05 04:49:43;;;;;;;11.15;6.07;;;;;;;;;;5067446;28;20048;-87
2021/10/05 04:52:09;;;;;;;12.75;7.25;;;;;;;;;;5067354;28;20056;-87
2021/10/05 04:54:35;;;;;;;14.43;7.60;;;;;;;;;;5070302;28;20110;-88
2021/10/05 04:57:01;;;;;;;14.75;7.80;;;;;;;;;;5067363;28;20025;-87
2021/10/05 04:59:28;;;;;;;16.60;7.88;;;;;;;;;;5071048;28;20477;-86
2021/10/05 05:01:55;;;;;;;17.08;8.10;;;;;;;;;;5069312;28;20541;-88
2021/10/05 05:04:21;;;;;;;13.63;7.93;;;;;;;;;;5076840;28;20040;-87
2021/10/05 05:06:47;;;;;;;13.80;8.23;;;;;;;;;;5087866;28;20020;-88
2021/10/05 05:09:13;;;;;;;16.60;9.05;;;;;;;;;;5089237;28;20039;-85
2021/10/05 05:11:39;;;;;;;20.48;8.63;;;;;;;;;;5068885;28;20031;-89
2021/10/05 05:14:08;;;;;;;14.32;8.80;;;;;;;;;;5074911;28;20026;-85
2021/10/05 05:16:39;;;;;;;15.50;8.13;;;12.10;99.90;;;;;;5068971;28;20025;-87
2021/10/05 05:19:05;;;;;;;18.02;7.65;;;12.10;99.90;;;;;;5067563;28;20059;-87
2021/10/05 05:21:32;;;;;;;15.40;8.68;;;;;;;;;;5075567;28;20577;-87
2021/10/05 05:23:58;;;;;;;15.00;8.65;;;;;;;;;;5071617;28;20107;-84
2021/10/05 05:26:24;;;;;;;15.20;8.88;;;;;;;;;;5074618;28;20033;-87
2021/10/05 05:28:50;;;;;;;16.67;9.55;;;;;;;;;;5067279;28;20466;-89
2021/10/05 05:31:17;;;;;;;15.55;8.55;;;;;;;;;;5070383;28;20025;-89
2021/10/05 05:33:43;;;;;;;20.25;9.73;;;;;;;;;;5079197;28;20020;-88
2021/10/05 05:36:09;;;;;;;19.33;10.05;;;;;;;;;;5073494;28;20081;-85
2021/10/05 05:38:35;;;;;;;18.75;10.25;;;;;;;;;;5071512;28;20029;-88
2021/10/05 05:41:01;;;;;;;17.58;9.98;;;;;;;;;;5074224;28;20032;-89
2021/10/05 05:43:27;;;;;;;18.50;10.25;;;;;;;;;;5068783;28;20030;-89
2021/10/05 05:45:53;;;;;;;15.98;9.50;;;;;;;;;;5080442;28;20098;-88
2021/10/05 05:48:19;;;;;;;18.05;9.57;;;;;;;;;;5071451;28;20017;-86
2021/10/05 05:50:45;;;;;;;16.88;9.38;;;;;;;;;;5069743;28;20456;-88
2021/10/05 05:53:12;;;;;;;14.32;8.88;;;;;;;;;;5073843;28;20032;-89
2021/10/05 05:55:38;;;;;;;20.58;9.80;;;;;;;;;;5091983;28;20032;-90
2021/10/05 05:58:18;;;;;;;17.88;8.75;;;;;;;;;;5083982;28;20044;-89
2021/10/05 06:00:45;;;;;;;14.05;8.07;;;;;;;;;;5085363;28;20020;-88
2021/10/05 06:03:12;;;;;;;13.95;7.75;;;;;;;;;;5082043;28;20024;-89
2021/10/05 06:05:38;;;;;;;14.07;7.78;;;;;;;;;;5060222;28;20065;-88
2021/10/05 06:08:05;;;;;;;13.18;7.78;;;;;;;;;;5072150;28;20020;-86
2021/10/05 06:10:34;;;;;;;14.98;7.85;;;;;;;;;;5075927;28;20097;-89
2021/10/05 06:13:00;;;;;;;10.85;7.35;;;;;;;;;;5085674;28;20025;-86
2021/10/05 06:15:26;;;;;;;17.38;7.95;;;;;;;;;;5085891;28;20080;-88
2021/10/05 06:17:52;;;;;;;16.45;8.80;;;;;;;;;;5088679;28;20054;-86
2021/10/05 06:20:23;;;;;;;11.70;7.20;;;;;;;;;;5086467;28;20047;-88
2021/10/05 06:22:49;;;;;;;;;;;12.10;99.90;;;;;;5083664;28;20035;-86
2021/10/05 06:25:16;;;;;;;15.02;7.28;;;;;;;;;;5084969;28;19991;-88
2021/10/05 06:27:43;;;;;;;12.65;6.95;;;;;;;;;;5085048;28;20425;-88
2021/10/05 06:30:10;;;;;;;11.63;6.60;;;;;;;;;;5083059;28;20027;-90
2021/10/05 06:32:38;;;;;;;15.10;6.53;;;;;;;;;;5077445;28;20027;-89
2021/10/05 06:35:05;;;;;;;9.77;6.20;;;;;;;;;;5073836;28;20100;-89
2021/10/05 06:37:31;;;;;;;12.77;6.43;;;;;;;;;;5077495;28;20028;-89
2021/10/05 06:39:57;;;;;;;10.63;6.35;;;;;;;;;;5077320;28;20035;-88
2021/10/05 06:42:23;;;;;;;13.07;6.40;;;;;;;;;;5073966;28;20025;-88
2021/10/05 06:44:49;;;;;;;13.65;6.32;;;;;;;;;;5074659;28;20040;-87
2021/10/05 06:47:15;;;;;;;8.95;5.78;;;;;;;;;;5080775;28;20053;-88
2021/10/05 06:49:43;;;;;;;10.93;5.63;;;;;;;;;;5077128;28;20028;-89
2021/10/05 06:52:09;;;;;;;8.80;5.95;;;;;;;;;;5075688;28;20033;-87
2021/10/05 06:54:37;;;;;;;9.70;5.55;;;;;;;;;;5077771;28;20028;-86
2021/10/05 06:57:03;;;;;;;9.75;5.90;;;;;;;;;;5082327;28;20047;-88
2021/10/05 06:59:29;;;;;;;9.85;5.57;;;;;;;;;;5074099;28;20021;-88
2021/10/05 07:01:58;;;;;;;9.98;5.80;;;;;;;;;;5077105;28;20115;-86
2021/10/05 07:04:24;;;;;;;13.80;6.65;;;;;;;;;;5077552;28;20030;-85
2021/10/05 07:06:50;;;;;;;9.43;5.40;;;;;;;;;;5076509;28;20044;-86
2021/10/05 07:09:17;;;;;;;11.82;5.70;;;;;;;;;;5073047;28;20021;-90
2021/10/05 07:11:44;;;;;;;9.30;5.50;;;;;;;;;;5076766;28;20020;-86
2021/10/05 07:14:10;;;;;;;7.30;4.72;;;;;;;;;;5069432;28;20111;-85
2021/10/05 07:16:36;;;;;;;6.28;3.80;;;;;;;;;;5072395;28;20047;-84
2021/10/05 07:19:02;;;;;;;5.93;3.72;;;;;;;;;;5080848;28;20031;-86
2021/10/05 07:21:28;;;;;;;5.35;3.58;;;;;;;;;;5080851;28;20020;-87
2021/10/05 07:23:54;;;;;;;5.50;3.60;;;;;;;;;;5078860;28;20048;-87
2021/10/05 07:26:20;;;;;;;5.88;3.70;;;;;;;;;;5067930;28;20037;-90
2021/10/05 07:28:46;;;;;;;4.80;3.00;;;;;;;;;;5069524;28;20029;-87
2021/10/05 07:31:24;;;;;;;6.10;2.85;;;;;;;;;;5072571;28;20037;-86
2021/10/05 07:33:50;;;;;;;4.57;3.00;;;;;;;;;;5069521;28;20509;-85
2021/10/05 07:36:27;;;;;;;8.15;3.28;;;;;;;;;;5082687;28;20024;-89
2021/10/05 07:38:54;;;;;;;4.38;3.00;;;;;;;;;;5073221;28;20045;-86
2021/10/05 07:41:20;;;;;;;6.47;3.20;;;;;;;;;;5083441;28;20036;-88
2021/10/05 07:43:46;;;;;;;4.70;2.88;;;;;;;;;;5072187;28;20082;-88
2021/10/05 07:46:16;;;;;;;4.88;2.78;;;;;;;;;;5074519;28;20037;-86
2021/10/05 07:48:43;;;;;;;;;;;13.00;99.90;;;;;;5074835;28;20035;-88
2021/10/05 07:51:11;;;;;;;3.95;2.88;;;;;;;;;;5079024;28;19908;-88
2021/10/05 07:53:37;;;;;;;4.55;2.67;;;;;;;;;;5077552;28;20039;-89
2021/10/05 07:56:07;;;;;;;5.30;2.97;;;;;;;;;;5081027;28;20044;-87
2021/10/05 07:58:51;;;;;;;4.60;2.97;;;;;;;;;;5085057;28;20024;-89
2021/10/05 08:01:17;;;;;;;5.63;3.15;;;;;;;;;;5086936;28;20457;-87
2021/10/05 08:03:43;;;;;;;4.68;3.05;;;;;;;;;;5084835;28;20036;-89
2021/10/05 08:06:09;;;;;;;6.35;3.13;;;;;;;;;;5086634;28;20092;-84
2021/10/05 08:08:38;;;;;;;7.03;3.00;;;;;;;;;;5085101;28;20093;-89
2021/10/05 08:11:10;;;;;;;6.18;3.63;;;;;;;;;;5083402;28;20109;-91
2021/10/05 08:13:36;;;;;;;4.90;2.63;;;;;;;;;;5080487;28;20025;-90
2021/10/05 08:16:03;;;;;;;4.28;2.47;;;;;;;;;;5082715;28;20077;-88
2021/10/05 08:18:29;;;;;;;5.43;2.08;;;;;;;;;;5079996;28;20032;-88
2021/10/05 08:20:55;;;;;;;2.60;1.77;;;;;;;;;;5088388;28;20020;-89
2021/10/05 08:23:21;;;;;;;3.25;2.05;;;;;;;;;;5079714;28;20063;-87
2021/10/05 08:25:48;;;;;;;3.33;2.00;;;;;;;;;;5083144;28;20032;-90
2021/10/05 08:28:14;;;;;;;4.72;2.70;;;;;;;;;;5084955;28;20437;-87
2021/10/05 08:30:41;;;;;;;3.47;1.90;;;;;;;;;;5075752;28;20021;-90
2021/10/05 08:33:09;;;;;;;3.42;1.80;;;;;;;;;;5082727;28;20021;-88
2021/10/05 08:35:36;;;;;;;2.47;1.55;;;;;;;;;;5077596;28;20037;-88
2021/10/05 08:38:04;;;;;;;2.30;1.63;;;;;;;;;;5072964;28;20119;-86
2021/10/05 08:40:33;;;;;;;2.70;1.58;;;;;;;;;;5082718;28;20054;-89
2021/10/05 08:42:59;;;;;;;3.90;1.60;;;;;;;;;;5071626;28;20092;-87
2021/10/05 08:45:26;;;;;;;2.80;1.63;;;;;;;;;;5078711;28;20056;-88
2021/10/05 08:47:52;;;;;;;2.85;1.60;;;;;;;;;;5052625;28;20144;-89
2021/10/05 08:50:20;;;;;;;2.90;1.70;;;;;;;;;;5072490;28;20033;-90
2021/10/05 08:52:47;;;;;;;5.28;1.83;;;;;;;;;;5070360;28;20504;-89
2021/10/05 08:55:13;;;;;;;4.43;1.67;;;;;;;;;;5074318;28;20071;-88
2021/10/05 08:57:39;;;;;;;3.00;1.80;;;;;;;;;;5071307;28;20025;-87
2021/10/05 09:00:08;;;;;;;3.10;2.00;;;;;;;;;;5069371;28;20048;-90
2021/10/05 09:02:56;;;;;;;3.30;1.88;;;;;;;;;;5071023;28;20304;-89
2021/10/05 09:05:22;;;;;;;3.08;2.00;;;;;;;;;;5080818;28;20029;-90
2021/10/05 09:07:50;;;;;;;3.13;1.60;;;;;;;;;;5073354;28;20025;-88
2021/10/05 09:10:20;;;;;;;4.13;1.92;;;;;;;;;;5093575;28;20020;-87
2021/10/05 09:12:47;;;;;;;2.38;1.63;;;;;;;;;;5074692;28;20085;-88
2021/10/05 09:15:15;;;;;;;3.45;1.42;;;;;;;;;;5074995;28;20038;-87
2021/10/05 09:17:49;;;;;;;3.25;1.50;;;;;;;;;;5071666;28;20037;-87
2021/10/05 09:20:25;;;;;;;3.60;1.60;;;;;;;;;;5073198;28;20087;-88
2021/10/05 09:22:59;;;;;;;2.92;1.50;;;;;;;;;;5078652;28;20031;-86
2021/10/05 09:25:29;;;;;;;3.53;1.83;;;;;;;;;;5074922;28;20063;-89
2021/10/05 09:27:55;;;;;;;3.20;1.55;;;;;;;;;;5065167;28;20025;-88
2021/10/05 09:30:22;;;;;;;3.95;1.50;;;;;;;;;;5075940;28;20024;-88
2021/10/05 09:32:58;;;;;;;4.20;1.83;;;;;;;;;;5080567;28;20025;-88
2021/10/05 09:35:24;;;;;;;3.88;1.30;;;;;;;;;;5082557;28;20025;-88
2021/10/05 09:37:50;;;;;;;3.25;1.67;;;;;;;;;;5077464;28;20028;-90
2021/10/05 09:40:16;;;;;;;3.22;1.17;;;;;;;;;;5082275;28;20042;-87
2021/10/05 09:42:52;;;;;;;4.78;1.33;;;;;;;;;;5071892;28;20047;-89
2021/10/05 09:45:21;;;;;;;4.65;2.10;;;;;;;;;;5083762;28;20043;-89
2021/10/05 09:47:49;;;;;;;2.78;1.30;;;;;;;;;;5084962;28;20029;-90
2021/10/05 09:50:25;;;;;;;22.20;7.45;;;;;;;;;;5086569;28;20477;-88
2021/10/05 09:52:58;;;;;;;5.57;1.65;;;;;;;;;;5076417;28;20021;-86
2021/10/05 09:55:26;;;;;;;2.10;1.00;;;;;;;;;;5074957;28;20028;-90
2021/10/05 09:57:52;;;;;;;2.33;1.20;;;;;;;;;;5087650;28;20024;-88
2021/10/05 10:00:22;;;;;;;2.10;1.10;;;;;;;;;;5083091;28;20036;-85
2021/10/05 10:02:49;;;;;;;;;;;18.40;95.50;;;;;;5084946;28;20029;-85
2021/10/05 10:05:16;;;;;;;4.32;1.30;;;;;;;;;;5079572;28;19913;-88
2021/10/05 10:07:47;;;;;;;3.53;1.30;;;;;;;;;;5062095;28;20036;-90
2021/10/05 10:10:19;;;;;;;3.15;1.10;;;;;;;;;;5081084;28;20032;-89
2021/10/05 10:12:48;;;;;;;3.25;1.40;;;;;;;;;;5072161;28;20032;-88
2021/10/05 10:15:14;;;;;;;2.85;1.13;;;;;;;;;;5087445;28;20367;-89
2021/10/05 10:17:40;;;;;;;3.08;1.20;;;;;;;;;;5088690;28;20025;-87
2021/10/05 10:20:07;;;;;;;6.07;1.60;;;;;;;;;;5091287;28;20051;-89
2021/10/05 10:22:44;;;;;;;2.10;1.27;;;17.10;98.20;;;;;;5107573;28;20055;-88
2021/10/05 10:25:19;;;;;;;2.13;1.00;;;;;;;;;;5072621;28;20032;-90
2021/10/05 10:27:45;;;;;;;4.85;1.40;;;;;;;;;;5073132;28;20060;-90
2021/10/05 10:30:12;;;;;;;3.33;1.30;;;;;;;;;;5089186;28;20036;-90
2021/10/05 10:33:01;;;;;;;1.83;0.98;;;;;;;;;;5095393;28;20130;-86
2021/10/05 10:35:28;;;;;;;4.40;1.38;;;;;;;;;;5074439;28;20056;-90
2021/10/05 10:37:55;;;;;;;3.47;1.20;;;;;;;;;;5086581;28;20044;-89
2021/10/05 10:40:32;;;;;;;4.78;1.52;;;;;;;;;;5078040;28;20043;-87
2021/10/05 10:43:09;;;;;;;3.00;1.10;;;;;;;;;;5078666;28;20025;-89
2021/10/05 10:45:41;;;;;;;2.33;1.13;;;;;;;;;;5085750;28;20020;-88
2021/10/05 10:48:07;;;;;;;1.73;1.10;;;;;;;;;;5085240;28;20051;-87
2021/10/05 10:50:35;;;;;;;3.40;1.10;;;;;;;;;;5089482;28;20054;-85
2021/10/05 10:53:05;;;;;;;2.08;1.10;;;;;;;;;;5081735;28;20048;-88
2021/10/05 10:55:36;;;;;;;1.83;1.30;;;;;;;;;;5080739;28;20020;-87
2021/10/05 10:58:02;;;;;;;2.35;1.05;;;;;;;;;;5081598;28;20033;-90
2021/10/05 11:00:29;;;;;;;1.58;0.90;;;;;;;;;;5092133;28;20069;-89
2021/10/05 11:02:56;;;;;;;1.48;0.90;;;;;;;;;;5086882;28;20032;-89
2021/10/05 11:05:23;;;;;;;2.88;0.90;;;;;;;;;;5083840;28;20028;-89
2021/10/05 11:07:50;;;;;;;1.85;1.00;;;;;;;;;;5083775;28;20035;-89
2021/10/05 11:10:17;;;;;;;3.78;1.10;;;;;;;;;;5089205;28;20021;-88
2021/10/05 11:12:53;;;;;;;11.95;2.00;;;;;;;;;;5081277;28;20024;-91
2021/10/05 11:15:45;;;;;;;6.05;1.20;;;18.40;95.00;;;;;;5079145;28;20048;-89
2021/10/05 11:18:13;;;;;;;5.45;1.25;;;;;;;;;;5076460;28;20040;-90
2021/10/05 11:20:48;;;;;;;4.20;1.00;;;;;;;;;;5078528;28;20417;-87
2021/10/05 11:23:19;;;;;;;3.40;1.67;;;;;;;;;;5068975;28;20025;-90
2021/10/05 11:25:50;;;;;;;3.97;1.70;;;;;;;;;;5076209;28;20520;-89
2021/10/05 11:28:17;;;;;;;18.00;8.55;;;;;;;;;;5067594;28;20056;-89
2021/10/05 11:30:52;;;;;;;4.18;1.90;;;;;;;;;;5069059;28;20040;-90
2021/10/05 11:33:38;;;;;;;2.85;1.40;;;;;;;;;;5068381;28;20070;-89
2021/10/05 11:36:14;;;;;;;3.42;0.95;;;;;;;;;;5074786;28;20029;-89
2021/10/05 11:38:51;;;;;;;3.00;0.80;;;;;;;;;;5076448;28;20112;-87
2021/10/05 11:41:17;;;;;;;2.78;1.30;;;;;;;;;;5072068;28;20048;-88
2021/10/05 11:43:45;;;;;;;2.47;0.95;;;;;;;;;;5078106;28;20083;-89
2021/10/05 11:46:18;;;;;;;2.13;1.00;;;;;;;;;;5076672;28;20020;-88
2021/10/05 11:48:45;;;;;;;3.60;1.42;;;;;;;;;;5073467;28;20527;-88
2021/10/05 11:51:13;;;;;;;3.75;1.13;;;;;;;;;;5076107;28;20027;-88
2021/10/05 11:53:39;;;;;;;2.63;0.93;;;;;;;;;;5073230;28;20535;-88
2021/10/05 11:56:17;;;;;;;5.70;1.25;;;19.20;92.70;;;;;;5065628;28;20397;-87
2021/10/05 11:58:58;;;;;;;4.93;1.20;;;18.90;92.80;;;;;;5091029;28;20025;-88
2021/10/05 12:01:28;;;;;;;1.63;0.82;;;18.90;92.80;;;;;;5068646;28;20103;-88
2021/10/05 12:04:04;;;;;;;2.58;1.00;;;18.90;92.90;;;;;;5068656;28;20021;-89
2021/10/05 12:06:41;;;;;;;1.85;0.85;;;18.70;92.50;;;;;;5073509;28;20039;-89
2021/10/05 12:09:14;;;;;;;1.45;0.80;;;18.50;93.10;;;;;;5073084;28;20021;-89
2021/10/05 12:11:44;;;;;;;1.17;0.90;;;18.30;93.30;;;;;;5072983;28;20032;-89
2021/10/05 12:14:11;;;;;;;2.30;0.80;;;;;;;;;;5071320;28;20025;-88
2021/10/05 12:16:37;;;;;;;2.45;1.00;;;;;;;;;;5078464;28;20102;-89
2021/10/05 12:19:03;;;;;;;4.55;1.23;;;;;;;;;;5077632;28;20033;-90
2021/10/05 12:21:29;;;;;;;2.20;0.90;;;;;;;;;;5079259;28;20020;-89
2021/10/05 12:24:00;;;;;;;3.40;1.20;;;17.60;94.30;;;;;;5078936;28;20044;-89
2021/10/05 12:26:26;;;;;;;4.97;1.05;;;;;;;;;;5067439;28;20086;-89
2021/10/05 12:28:55;;;;;;;4.82;1.45;;;17.80;94.50;;;;;;5073418;28;20056;-89
2021/10/05 12:31:22;;;;;;;4.75;1.10;;;;;;;;;;5074555;28;20089;-88
2021/10/05 12:34:14;;;;;;;4.45;1.10;;;18.00;94.30;;;;;;5055966;28;20121;-89
2021/10/05 12:36:41;;;;;;;2.42;1.10;;;;;;;;;;5069281;28;20033;-87
2021/10/05 12:39:11;;;;;;;1.63;0.90;;;;;;;;;;5081524;28;20116;-88
2021/10/05 12:41:38;;;;;;;3.08;1.10;;;;;;;;;;5081489;28;20397;-87
2021/10/05 12:44:12;;;;;;;1.23;0.80;;;;;;;;;;5082087;28;20029;-89
2021/10/05 12:46:39;;;;;;;1.75;0.90;;;;;;;;;;5081649;28;20119;-89
2021/10/05 12:49:13;;;;;;;3.13;0.90;;;;;;;;;;5079104;28;20020;-88
2021/10/05 12:51:48;;;;;;;2.97;1.10;;;;;;;;;;5079308;28;20025;-88
2021/10/05 12:54:17;;;;;;;2.42;0.95;;;;;;;;;;5082634;28;20025;-89
2021/10/05 12:56:45;;;;;;;1.50;1.10;;;;;;;;;;5076492;28;20045;-89
2021/10/05 12:59:12;;;;;;;4.03;1.10;;;;;;;;;;5075501;28;20029;-90
2021/10/05 13:01:42;;;;;;;1.63;0.80;;;;;;;;;;5078688;28;20103;-87
2021/10/05 13:04:09;;;;;;;1.88;0.93;;;;;;;;;;5083166;28;20414;-90
2021/10/05 13:06:36;;;;;;;3.50;0.98;;;;;;;;;;5071261;28;20042;-89
2021/10/05 13:09:04;;;;;;;3.78;1.73;;;;;;;;;;5073374;28;20343;-89
2021/10/05 13:11:30;;;;;;;9.77;1.38;;;;;;;;;;5076198;28;20311;-89
2021/10/05 13:13:56;;;;;;;3.97;0.80;;;;;;;;;;5074648;28;20085;-86
2021/10/05 13:16:22;;;;;;;4.75;1.90;;;;;;;;;;5069014;28;20032;-89
2021/10/05 13:18:48;;;;;;;2.67;0.90;;;;;;;;;;5088625;28;20032;-89
2021/10/05 13:21:14;;;;;;;3.60;0.90;;;;;;;;;;5075640;28;20033;-86
2021/10/05 13:23:41;;;;;;;4.38;1.00;;;;;;;;;;5077968;28;20426;-90
2021/10/05 13:26:07;;;;;;;3.53;0.90;;;;;;;;;;5073052;28;20048;-89
2021/10/05 13:28:33;;;;;;;3.10;0.80;;;;;;;;;;5072718;28;20959;-89
2021/10/05 13:30:59;;;;;;;1.73;0.90;;;;;;;;;;5077787;28;20035;-89
2021/10/05 13:33:25;;;;;;;2.65;0.90;;;;;;;;;;5075351;28;20482;-88
2021/10/05 13:35:52;;;;;;;3.88;0.80;;;;;;;;;;5073544;28;20031;-88
2021/10/05 13:38:20;;;;;;;2.50;0.80;;;;;;;;;;5074603;28;20489;-88
2021/10/05 13:43:22;;;;;;;7.97;1.38;;;;;;;;;;5053751;22;20037;-84
2021/10/05 13:45:50;;;;;;;1.90;0.90;;;;;;;;;;5000732;28;20137;-86
2021/10/05 13:48:16;;;;;;;1.13;0.65;;;;;;;;;;5016807;28;20022;-86
2021/10/05 13:50:43;;;;;;;2.92;1.00;;;;;;;;;;5019018;28;20040;-86
2021/10/05 13:53:09;;;;;;;1.33;0.80;;;;;;;;;;5018690;28;20056;-84
2021/10/05 13:55:35;;;;;;;4.60;0.82;;;;;;;;;;5016975;28;20025;-87
2021/10/05 13:58:01;;;;;;;2.05;0.98;;;;;;;;;;5022652;28;20467;-84
2021/10/05 14:00:27;;;;;;;4.85;1.60;;;;;;;;;;5025306;28;20063;-86
2021/10/05 14:02:53;;;;;;;2.22;0.95;;;;;;;;;;5048274;28;20033;-86
2021/10/05 14:05:19;;;;;;;4.03;0.70;;;;;;;;;;5028428;28;20036;-85
2021/10/05 14:07:45;;;;;;;1.45;0.75;;;;;;;;;;5020856;28;20454;-87
2021/10/05 14:10:11;;;;;;;2.47;0.90;;;;;;;;;;5019594;28;20032;-84
2021/10/05 14:12:37;;;;;;;3.55;2.22;;;;;;;;;;5015094;28;20030;-86
2021/10/05 14:15:03;;;;;;;1.85;0.80;;;;;;;;;;5036339;28;20032;-86
2021/10/05 14:17:29;;;;;;;1.20;0.80;;;;;;;;;;5037425;28;20137;-86
2021/10/05 14:19:57;;;;;;;3.35;0.95;;;;;;;;;;5020056;28;20033;-87
2021/10/05 14:22:23;;;;;;;2.00;1.00;;;;;;;;;;5038082;28;20676;-87
2021/10/05 14:24:49;;;;;;;2.17;1.00;;;;;;;;;;5029247;28;20477;-85
2021/10/05 14:27:16;;;;;;;1.10;0.70;;;16.10;99.90;;;;;;5025275;28;20033;-85
2021/10/05 14:29:42;;;;;;;2.15;0.90;;;;;;;;;;5020232;28;20032;-88
2021/10/05 14:32:09;;;;;;;2.13;0.80;;;;;;;;;;5024036;28;20085;-87
2021/10/05 14:34:36;;;;;;;1.17;0.90;;;;;;;;;;5024230;28;20056;-86
2021/10/05 14:37:04;;;;;;;3.38;1.20;;;;;;;;;;5021962;28;20436;-87
2021/10/05 14:39:30;;;;;;;6.88;2.33;;;;;;;;;;5035664;28;20481;-88
2021/10/05 14:41:56;;;;;;;4.35;1.13;;;;;;;;;;5018226;28;20501;-85
2021/10/05 14:44:22;;;;;;;4.93;1.17;;;;;;;;;;5024962;28;20022;-87
2021/10/05 14:46:48;;;;;;;1.20;0.95;;;;;;;;;;5041611;28;20040;-86